Time;durP1;ratioP1;P1;durP2;ratioP2;P2;SDS_P1;SDS_P2;PMS_P1;PMS_P2;Temp;Humidity;BMP_temperature;BMP_pressure;BME280_temperature;BME280_humidity;BME280_pressure;Samples;Min_cycle;Max_cycle;Signal;HPM_P1;HPM_P2
2022/06/07 00:02:24;;;;;;;3.28;2.03;;;;;;;;;;5105294;28;20027;-85
2022/06/07 00:04:50;;;;;;;2.58;2.05;;;;;;;;;;5107175;28;20028;-84
2022/06/07 00:07:16;;;;;;;3.35;2.00;;;;;;;;;;5098273;28;21479;-84
2022/06/07 00:09:41;;;;;;;3.55;2.17;;;;;;;;;;5108689;28;20028;-85
2022/06/07 00:12:07;;;;;;;4.20;1.92;;;;;;;;;;5105101;28;20024;-84
2022/06/07 00:14:32;;;;;;;2.83;2.05;;;;;;;;;;5112310;28;20395;-84
2022/06/07 00:16:58;;;;;;;3.88;2.58;;;;;;;;;;5112310;28;20028;-85
2022/06/07 00:19:23;;;;;;;3.30;2.10;;;;;;;;;;5111626;28;20027;-85
2022/06/07 00:21:49;;;;;;;3.22;2.05;;;;;;;;;;5112235;28;20023;-83
2022/06/07 00:24:14;;;;;;;4.45;2.47;;;;;;;;;;5112035;28;20019;-83
2022/06/07 00:26:41;;;;;;;3.38;2.20;;;;;;;;;;5111667;28;20538;-83
2022/06/07 00:29:07;;;;;;;4.93;2.22;;;;;;;;;;5111605;28;20140;-83
2022/06/07 00:31:34;;;;;;;7.90;2.28;;;;;;;;;;5082180;28;20536;-84
2022/06/07 00:34:00;;;;;;;5.70;2.10;;;;;;;;;;5090566;28;20051;-85
2022/06/07 00:36:25;;;;;;;5.60;2.60;;;;;;;;;;5110267;28;20491;-84
2022/06/07 00:38:51;;;;;;;2.83;2.28;;;;;;;;;;5091554;28;20032;-84
2022/06/07 00:41:16;;;;;;;3.80;2.67;;;;;;;;;;5111095;28;20020;-84
2022/06/07 00:44:22;;;;;;;4.47;2.50;;;;;;;;;;5093311;28;20034;-85
2022/06/07 00:46:53;;;;;;;3.45;2.05;;;;;;;;;;5084123;28;20036;-84
2022/06/07 00:49:20;;;;;;;3.75;2.08;;;;;;;;;;5104654;28;20059;-85
2022/06/07 00:51:45;;;;;;;5.95;2.92;;;;;;;;;;5100861;28;20035;-84
2022/06/07 00:54:30;;;;;;;6.22;2.67;;;;;;;;;;5086262;28;20149;-85
2022/06/07 00:56:56;;;;;;;3.97;2.45;;;;;;;;;;5098002;28;20020;-84
2022/06/07 00:59:23;;;;;;;4.00;2.50;;;;;;;;;;5103064;28;20127;-84
2022/06/07 01:01:50;;;;;;;4.53;2.55;;;;;;;;;;5081304;28;20023;-87
2022/06/07 01:04:16;;;;;;;4.30;2.60;;;;;;;;;;5101519;28;20464;-86
2022/06/07 01:12:10;;;;;;;4.25;2.15;;;;;;;;;;5107706;28;20057;-87
2022/06/07 01:14:36;;;;;;;4.47;2.40;;;;;;;;;;5111544;28;20016;-86
2022/06/07 01:17:02;;;;;;;9.02;2.90;;;;;;;;;;5096584;28;20600;-87
2022/06/07 01:19:27;;;;;;;3.90;2.58;;;;;;;;;;5115936;28;20508;-87
2022/06/07 01:21:53;;;;;;;5.78;2.22;;;;;;;;;;5115494;28;20027;-85
2022/06/07 01:24:18;;;;;;;4.20;2.13;;;;;;;;;;5112863;28;20504;-85
2022/06/07 01:26:44;;;;;;;3.40;2.17;;;;;;;;;;5114839;28;20035;-88
2022/06/07 01:29:11;;;;;;;5.13;2.85;;;;;;;;;;5113322;28;20028;-84
2022/06/07 01:31:38;;;;;;;8.82;2.80;;;;;;;;;;5109775;28;20027;-84
2022/06/07 01:34:04;;;;;;;3.95;2.53;;;;;;;;;;5111686;28;20027;-86
2022/06/07 01:36:30;;;;;;;5.25;2.38;;;;;;;;;;5109312;28;20046;-86
2022/06/07 01:41:55;;;;;;;3.33;2.30;;;;;;;;;;5106160;27;20034;-85
2022/06/07 01:44:30;;;;;;;3.78;2.65;;;;;;;;;;5088110;28;20024;-85
2022/06/07 01:46:58;;;;;;;5.15;2.42;;;;;;;;;;5112285;28;20029;-85
2022/06/07 01:49:24;;;;;;;3.40;2.45;;;;;;;;;;5112077;28;20436;-86
2022/06/07 01:51:52;;;;;;;3.35;2.40;;;;;;;;;;5112882;28;20024;-85
2022/06/07 01:54:17;;;;;;;3.92;2.50;;;;;;;;;;5111785;28;20491;-85
2022/06/07 01:56:42;;;;;;;4.40;2.15;;;;;;;;;;5111589;28;20068;-85
2022/06/07 01:59:08;;;;;;;4.97;2.33;;;;;;;;;;5111695;28;20059;-85
2022/06/07 02:01:34;;;;;;;5.13;2.40;;;;;;;;;;5093895;28;20753;-84
2022/06/07 02:04:00;;;;;;;3.42;2.03;;;;;;;;;;5128968;27;20015;-84
2022/06/07 02:06:25;;;;;;;2.40;1.90;;;;;;;;;;5111521;28;20019;-84
2022/06/07 02:08:51;;;;;;;3.50;2.22;;;;;;;;;;5111263;28;20031;-84
2022/06/07 02:11:21;;;;;;;2.20;1.80;;;;;;;;;;5110200;28;20387;-83
2022/06/07 02:13:47;;;;;;;4.45;2.15;;;;;;;;;;5112060;28;20031;-84
2022/06/07 02:16:13;;;;;;;5.57;2.28;;;;;;;;;;5112567;28;21702;-83
2022/06/07 02:18:39;;;;;;;4.40;2.00;;;;;;;;;;5114027;28;20463;-84
2022/06/07 02:21:06;;;;;;;5.03;2.50;;;;;;;;;;5108731;28;20054;-83
2022/06/07 02:23:33;;;;;;;3.15;1.90;;;;;;;;;;5111653;28;20024;-84
2022/06/07 02:26:14;;;;;;;4.47;1.95;;;;;;;;;;5111807;28;20031;-84
2022/06/07 02:28:44;;;;;;;3.78;2.00;;;;;;;;;;5093874;28;20028;-85
2022/06/07 02:31:10;;;;;;;4.13;1.98;;;;;;;;;;5094379;28;20030;-85
2022/06/07 02:33:39;;;;;;;5.18;2.10;;;;;;;;;;5111014;28;20411;-86
2022/06/07 02:36:06;;;;;;;6.03;2.47;;;;;;;;;;5110008;28;20131;-86
2022/06/07 02:38:33;;;;;;;3.97;1.98;;;;;;;;;;5112750;28;20765;-86
2022/06/07 02:40:58;;;;;;;3.15;2.00;;;;;;;;;;5113535;28;20028;-85
2022/06/07 02:43:24;;;;;;;5.85;2.15;;;;;;;;;;5113176;28;20032;-84
2022/06/07 02:45:49;;;;;;;3.50;2.13;;;;;;;;;;5109989;28;20031;-84
2022/06/07 02:48:15;;;;;;;5.68;2.20;;;;;;;;;;5095272;28;20467;-83
2022/06/07 02:50:41;;;;;;;4.60;2.10;;;;;;;;;;5112484;28;20039;-84
2022/06/07 02:53:06;;;;;;;2.90;2.05;;;;;;;;;;5113068;28;20380;-83
2022/06/07 02:55:31;;;;;;;2.90;2.28;;;;;;;;;;5112603;28;20028;-83
2022/06/07 02:57:58;;;;;;;2.38;1.88;;;;;;;;;;5094219;28;20114;-84
2022/06/07 03:00:23;;;;;;;3.03;2.10;;;;;;;;;;5112687;28;20054;-84
2022/06/07 03:02:48;;;;;;;2.70;2.05;;;;;;;;;;5112776;28;20032;-83
2022/06/07 03:05:15;;;;;;;3.13;2.10;;;;;;;;;;5112477;28;20031;-83
2022/06/07 03:07:41;;;;;;;3.67;2.60;;;;;;;;;;5111232;28;20072;-86
2022/06/07 03:10:09;;;;;;;3.90;2.90;;;;;;;;;;5112480;28;20418;-84
2022/06/07 03:12:35;;;;;;;3.42;2.00;;;;;;;;;;5110493;28;20098;-86
2022/06/07 03:15:00;;;;;;;4.30;2.30;;;;;;;;;;5110221;28;20035;-85
2022/06/07 03:17:26;;;;;;;4.05;2.20;;;;;;;;;;5094534;28;20486;-86
2022/06/07 03:19:52;;;;;;;4.03;2.38;;;;;;;;;;5112232;28;20023;-86
2022/06/07 03:22:18;;;;;;;5.63;2.30;;;;;;;;;;5109020;28;20457;-85
2022/06/07 03:24:44;;;;;;;4.50;2.70;;;;;;;;;;5108639;28;20515;-85
2022/06/07 03:27:10;;;;;;;3.83;2.40;;;;;;;;;;5093208;28;20023;-86
2022/06/07 03:29:37;;;;;;;5.05;2.35;;;;;;;;;;5112405;28;20098;-85
2022/06/07 03:32:03;;;;;;;5.78;2.40;;;;;;;;;;5108582;28;20042;-85
2022/06/07 03:34:28;;;;;;;3.45;2.30;;;;;;;;;;5092499;28;20027;-85
2022/06/07 03:36:53;;;;;;;3.80;2.05;;;;;;;;;;5109844;28;20054;-85
2022/06/07 03:39:19;;;;;;;4.05;2.50;;;;;;;;;;5091227;28;20020;-85
2022/06/07 03:41:45;;;;;;;5.03;2.80;;;;;;;;;;5109404;28;20383;-85
2022/06/07 03:44:10;;;;;;;3.22;2.55;;;;;;;;;;5109503;28;20073;-85
2022/06/07 03:46:36;;;;;;;3.20;2.45;;;;;;;;;;5109793;28;20038;-84
2022/06/07 03:49:03;;;;;;;6.20;2.38;;;;;;;;;;5109691;28;20023;-85
2022/06/07 03:51:30;;;;;;;3.53;2.15;;;;;;;;;;5088998;28;20490;-85
2022/06/07 03:53:57;;;;;;;4.85;2.53;;;;;;;;;;5104815;28;20031;-85
2022/06/07 03:56:23;;;;;;;2.97;2.20;;;;;;;;;;5105559;28;20343;-85
2022/06/07 03:58:49;;;;;;;2.63;1.85;;;;;;;;;;5086519;28;20061;-85
2022/06/07 04:01:17;;;;;;;3.47;2.35;;;;;;;;;;5102434;28;20155;-85
2022/06/07 04:03:43;;;;;;;3.00;2.05;;;;;;;;;;5111928;28;20023;-85
2022/06/07 04:06:20;;;;;;;3.22;2.28;;;;;;;;;;5112209;28;20034;-85
2022/06/07 04:08:46;;;;;;;3.30;2.00;;;;;;;;;;5110558;27;20463;-84
2022/06/07 04:11:14;;;;;;;3.90;2.28;;;;;;;;;;5108827;28;20032;-85
2022/06/07 04:13:39;;;;;;;2.83;2.00;;;;;;;;;;5110696;28;20035;-86
2022/06/07 04:16:11;;;;;;;3.83;2.13;;;;;;;;;;5110919;28;20483;-86
2022/06/07 04:18:36;;;;;;;2.72;2.15;;;;;;;;;;5091317;28;20019;-85
2022/06/07 04:21:02;;;;;;;4.88;2.03;;;;;;;;;;5111483;28;20046;-85
2022/06/07 04:23:28;;;;;;;3.33;1.98;;;;;;;;;;5108283;28;20032;-85
2022/06/07 04:25:53;;;;;;;4.00;2.20;;;;;;;;;;5090058;28;20127;-84
2022/06/07 04:28:19;;;;;;;5.28;2.40;;;;;;;;;;5108103;28;20023;-84
2022/06/07 04:30:47;;;;;;;3.65;2.47;;;;;;;;;;5108984;28;20118;-84
2022/06/07 04:33:15;;;;;;;3.05;2.28;;;;;;;;;;5106694;28;20077;-86
2022/06/07 04:35:43;;;;;;;3.20;2.35;;;;;;;;;;5090962;28;20079;-85
2022/06/07 04:38:10;;;;;;;4.07;2.92;;;;;;;;;;5089377;28;20035;-85
2022/06/07 04:40:38;;;;;;;4.25;3.13;;;;;;;;;;5087651;28;20047;-86
2022/06/07 04:43:04;;;;;;;4.05;2.67;;;;;;;;;;5108085;28;20422;-85
2022/06/07 04:45:31;;;;;;;3.53;2.63;;;;;;;;;;5108838;28;20019;-85
2022/06/07 04:47:57;;;;;;;5.05;3.80;;;;;;;;;;5105041;28;20073;-85
2022/06/07 04:50:23;;;;;;;6.32;3.97;;;;;;;;;;5087753;28;20061;-84
2022/06/07 04:52:48;;;;;;;7.32;4.53;;;;;;;;;;5105118;28;20063;-85
2022/06/07 04:55:17;;;;;;;7.40;4.35;;;;;;;;;;5106164;28;20028;-84
2022/06/07 04:57:42;;;;;;;7.50;4.50;;;;;;;;;;5105561;28;20020;-86
2022/06/07 05:00:14;;;;;;;6.50;4.55;;;;;;;;;;5109966;28;20023;-86
2022/06/07 05:02:41;;;;;;;7.18;4.80;;;;;;;;;;5090602;28;20026;-86
2022/06/07 05:05:07;;;;;;;9.32;4.35;;;;;;;;;;5107211;28;20045;-84
2022/06/07 05:07:32;;;;;;;6.88;4.65;;;;;;;;;;5107901;28;20027;-85
2022/06/07 05:09:58;;;;;;;8.73;4.68;;;;;;;;;;5102937;28;20499;-85
2022/06/07 05:12:24;;;;;;;11.13;6.68;;;;;;;;;;5101772;28;20103;-85
2022/06/07 05:14:49;;;;;;;10.52;6.22;;;;;;;;;;5101916;28;20062;-87
2022/06/07 05:17:15;;;;;;;9.02;7.05;;;;;;;;;;5088639;28;20144;-86
2022/06/07 05:19:41;;;;;;;10.05;7.32;;;;;;;;;;5102268;28;20023;-85
2022/06/07 05:22:06;;;;;;;10.98;7.97;;;;;;;;;;5100732;28;20468;-86
2022/06/07 05:24:32;;;;;;;8.85;7.40;;;;;;;;;;5110299;28;20396;-85
2022/06/07 05:26:59;;;;;;;11.65;7.63;;;;;;;;;;5109516;28;20028;-85
2022/06/07 05:29:38;;;;;;;9.93;7.75;;;;;;;;;;5109703;28;20035;-86
2022/06/07 05:32:04;;;;;;;10.85;8.45;;;;;;;;;;5087577;28;20518;-86
2022/06/07 05:34:29;;;;;;;14.00;8.40;;;;;;;;;;5101038;28;20020;-86
2022/06/07 05:36:55;;;;;;;10.73;8.75;;;;;;;;;;5080432;28;20036;-85
2022/06/07 05:39:26;;;;;;;10.95;8.80;;;;;;;;;;5104358;28;20055;-84
2022/06/07 05:41:52;;;;;;;11.85;8.25;;;;;;;;;;5102178;28;20073;-85
2022/06/07 05:44:19;;;;;;;11.25;8.38;;;;;;;;;;5110445;28;20088;-85
2022/06/07 05:46:44;;;;;;;14.00;7.85;;;;;;;;;;5106974;28;20541;-84
2022/06/07 05:49:10;;;;;;;10.20;7.95;;;;;;;;;;5110402;28;20023;-84
2022/06/07 05:51:37;;;;;;;13.85;8.90;;;;;;;;;;5109522;28;20028;-83
2022/06/07 05:54:02;;;;;;;13.70;9.48;;;;;;;;;;5108224;28;20502;-83
2022/06/07 05:56:28;;;;;;;14.45;9.32;;;;;;;;;;5109614;28;20024;-85
2022/06/07 05:58:53;;;;;;;11.45;9.10;;;;;;;;;;5110029;28;20020;-84
2022/06/07 06:01:19;;;;;;;12.68;9.65;;;;;;;;;;5108838;28;20027;-85
2022/06/07 06:03:45;;;;;;;10.93;9.27;;;;;;;;;;5112904;28;20363;-85
2022/06/07 06:06:11;;;;;;;11.55;9.30;;;;;;;;;;5092073;28;20027;-84
2022/06/07 06:11:23;;;;;;;12.10;8.98;;;;;;;;;;5112806;28;20034;-83
2022/06/07 06:13:49;;;;;;;14.02;9.38;;;;;;;;;;5095455;28;20386;-84
2022/06/07 06:16:19;;;;;;;11.15;8.63;;;;;;;;;;5095557;28;20111;-85
2022/06/07 06:18:47;;;;;;;11.48;8.80;;;;;;;;;;5109298;28;20498;-83
2022/06/07 06:21:12;;;;;;;11.75;9.00;;;;;;;;;;5105088;28;20023;-84
2022/06/07 06:23:38;;;;;;;12.65;8.18;;;;;;;;;;5086207;28;20024;-83
2022/06/07 06:26:11;;;;;;;10.95;8.00;;;;;;;;;;5112801;28;20035;-84
2022/06/07 06:28:37;;;;;;;8.88;6.95;;;;;;;;;;5103140;28;20084;-84
2022/06/07 06:31:05;;;;;;;9.25;7.47;;;;;;;;;;5101165;28;20866;-85
2022/06/07 06:33:42;;;;;;;10.48;8.15;;;;;;;;;;5111523;28;20023;-83
2022/06/07 06:36:10;;;;;;;11.27;7.97;;;;;;;;;;5102716;28;20504;-82
2022/06/07 06:38:36;;;;;;;8.93;7.70;;;;;;;;;;5101350;28;20100;-83
2022/06/07 06:41:14;;;;;;;8.55;7.45;;;;;;;;;;5109669;28;20020;-84
2022/06/07 06:43:39;;;;;;;9.77;7.03;;;;;;;;;;5108080;28;20032;-86
2022/06/07 06:46:07;;;;;;;7.60;6.05;;;;;;;;;;5107302;28;20042;-85
2022/06/07 06:48:32;;;;;;;8.20;6.50;;;;;;;;;;5111304;28;20035;-84
2022/06/07 06:51:04;;;;;;;8.30;6.50;;;;;;;;;;5113651;28;20077;-85
2022/06/07 06:53:30;;;;;;;8.38;6.57;;;;;;;;;;5105446;28;20093;-86
2022/06/07 06:55:56;;;;;;;8.13;6.55;;;;;;;;;;5107758;28;20132;-85
2022/06/07 06:58:21;;;;;;;7.30;6.20;;;;;;;;;;5098488;28;20542;-84
2022/06/07 07:00:47;;;;;;;10.23;6.28;;;;;;;;;;5101090;28;20023;-83
2022/06/07 07:03:13;;;;;;;7.82;6.28;;;;;;;;;;5101508;28;20050;-85
2022/06/07 07:05:38;;;;;;;8.95;6.53;;;;;;;;;;5093358;28;20019;-85
2022/06/07 07:08:04;;;;;;;8.30;5.93;;;;;;;;;;5108469;28;20840;-84
2022/06/07 07:10:29;;;;;;;7.68;6.75;;;;;;;;;;5112768;28;20039;-84
2022/06/07 07:12:55;;;;;;;7.85;6.25;;;;;;;;;;5109083;28;20172;-84
2022/06/07 07:15:20;;;;;;;10.43;6.75;;;;;;;;;;5109541;28;20023;-85
2022/06/07 07:17:47;;;;;;;14.32;10.95;;;;;;;;;;5111175;28;20035;-84
2022/06/07 07:20:13;;;;;;;55.60;45.28;;;;;;;;;;5112064;28;20011;-86
2022/06/07 07:22:38;;;;;;;12.52;9.35;;;;;;;;;;5094370;28;20486;-86
2022/06/07 07:25:05;;;;;;;8.77;6.65;;;;;;;;;;5092078;28;20027;-84
2022/06/07 07:27:31;;;;;;;8.23;7.10;;;;;;;;;;5108623;28;20028;-83
2022/06/07 07:29:57;;;;;;;7.88;6.45;;;;;;;;;;5109175;28;20113;-84
2022/06/07 07:32:23;;;;;;;7.72;6.60;;;;;;;;;;5112916;28;20218;-83
2022/06/07 07:34:48;;;;;;;9.82;7.28;;;;;;;;;;5108378;28;20027;-82
2022/06/07 07:37:14;;;;;;;12.40;7.38;;;;;;;;;;5108354;28;20035;-82
2022/06/07 07:39:39;;;;;;;8.43;7.20;;;;;;;;;;5102977;28;20048;-83
2022/06/07 07:42:05;;;;;;;10.50;7.35;;;;;;;;;;5093039;28;20047;-86
2022/06/07 07:44:30;;;;;;;10.55;6.47;;;;;;;;;;5112878;27;20023;-85
2022/06/07 07:46:56;;;;;;;7.93;6.05;;;;;;;;;;5094578;28;20165;-83
2022/06/07 07:49:22;;;;;;;6.38;5.65;;;;;;;;;;5111043;28;20027;-84
2022/06/07 07:51:51;;;;;;;10.75;6.45;;;;;;;;;;5105062;28;20046;-84
2022/06/07 07:54:19;;;;;;;8.70;6.38;;;;;;;;;;5086108;28;20023;-85
2022/06/07 07:56:45;;;;;;;7.25;6.32;;;;;;;;;;5104730;28;20035;-84
2022/06/07 07:59:13;;;;;;;8.70;6.53;;;;;;;;;;5087128;28;20043;-85
2022/06/07 08:01:39;;;;;;;6.25;5.10;;;;;;;;;;5103643;28;20468;-85
2022/06/07 08:04:05;;;;;;;9.63;5.90;;;;;;;;;;5105815;28;20020;-84
2022/06/07 08:06:32;;;;;;;6.78;5.35;;;;;;;;;;5110967;28;20379;-85
2022/06/07 08:09:00;;;;;;;6.75;4.85;;;;;;;;;;5090251;28;20463;-85
2022/06/07 08:11:29;;;;;;;6.28;5.07;;;;;;;;;;5110566;28;20016;-85
2022/06/07 08:13:55;;;;;;;5.05;3.88;;;;;;;;;;5108604;28;20472;-86
2022/06/07 08:16:21;;;;;;;5.70;4.93;;;;;;;;;;5111665;28;20078;-84
2022/06/07 08:18:47;;;;;;;6.93;5.10;;;;;;;;;;5112750;27;20506;-84
2022/06/07 08:21:15;;;;;;;7.28;5.05;;;;;;;;;;5109447;28;20425;-85
2022/06/07 08:23:41;;;;;;;6.90;4.37;;;;;;;;;;5105923;27;20111;-85
2022/06/07 08:26:08;;;;;;;5.38;3.70;;;;;;;;;;5090298;28;20102;-84
2022/06/07 08:28:34;;;;;;;12.30;4.65;;;;;;;;;;5111272;28;20489;-85
2022/06/07 08:31:00;;;;;;;7.82;3.95;;;;;;;;;;5108406;28;20027;-84
2022/06/07 08:39:03;;;;;;;5.45;3.17;;;;;;;;;;5110969;28;20110;-85
2022/06/07 08:41:54;;;;;;;5.60;2.75;;;;;;;;;;5109175;28;20429;-85
2022/06/07 08:44:41;;;;;;;4.07;2.55;;;;;;;;;;5092398;28;20030;-84
2022/06/07 08:47:14;;;;;;;4.57;2.78;;;;;;;;;;5091602;28;20543;-85
2022/06/07 08:49:40;;;;;;;2.97;2.45;;;;;;;;;;5109878;28;20132;-83
2022/06/07 08:52:08;;;;;;;4.43;2.78;;;;;;;;;;5103959;28;20424;-85
2022/06/07 08:54:37;;;;;;;4.55;3.83;;;;;;;;;;5107748;28;20034;-86
2022/06/07 08:57:23;;;;;;;4.07;3.30;;;;;;;;;;5087913;28;20610;-85
2022/06/07 08:59:54;;;;;;;3.75;2.67;;;;;;;;;;5090798;28;20514;-85
2022/06/07 09:02:39;;;;;;;2.97;1.67;;;;;;;;;;5110088;28;20037;-87
2022/06/07 09:05:04;;;;;;;2.80;2.28;;;;;;;;;;5111745;28;20073;-87
2022/06/07 09:07:30;;;;;;;3.30;2.25;;;;;;;;;;5113003;27;20019;-87
2022/06/07 09:12:58;;;;;;;2.92;1.92;;;;;;;;;;5109941;28;20038;-86
2022/06/07 09:15:29;;;;;;;3.28;1.95;;;;;;;;;;5090630;28;20051;-86
2022/06/07 09:17:58;;;;;;;4.88;2.30;;;;;;;;;;5108450;28;20068;-88
2022/06/07 09:21:02;;;;;;;2.37;1.93;;;;;;;;;;5091295;28;20027;-87
2022/06/07 09:23:33;;;;;;;5.05;2.65;;;;;;;;;;5032359;28;20024;-86
2022/06/07 09:26:31;;;;;;;4.80;2.40;;;;;;;;;;5082861;28;20040;-87
2022/06/07 09:29:15;;;;;;;3.08;2.58;;;;;;;;;;5089564;28;20077;-85
2022/06/07 09:31:42;;;;;;;8.48;5.53;;;;;;;;;;5100741;28;20030;-84
2022/06/07 09:34:17;;;;;;;4.47;3.47;;;;;;;;;;5104414;28;20498;-87
2022/06/07 09:36:49;;;;;;;6.60;2.80;;;;;;;;;;5114204;27;20061;-85
2022/06/07 09:39:24;;;;;;;3.03;2.50;;;;;;;;;;5113214;28;20024;-86
2022/06/07 09:41:54;;;;;;;6.10;2.97;;;;;;;;;;5114277;28;20028;-84
2022/06/07 09:44:23;;;;;;;3.78;3.13;;;;;;;;;;5111195;28;20015;-87
2022/06/07 09:46:58;;;;;;;5.40;3.38;;;;;;;;;;5114253;28;20034;-85
2022/06/07 09:49:30;;;;;;;3.75;3.22;;;;;;;;;;5085389;28;20027;-83
2022/06/07 09:52:04;;;;;;;5.50;3.42;;;;;;;;;;5078453;28;20027;-85
2022/06/07 09:54:30;;;;;;;4.03;2.85;;;;;;;;;;5086229;28;20027;-83
2022/06/07 09:57:01;;;;;;;6.60;3.75;;;;;;;;;;5093577;28;20035;-86
2022/06/07 09:59:38;;;;;;;10.60;3.58;;;;;;;;;;5105423;28;20036;-84
2022/06/07 10:02:11;;;;;;;5.95;3.50;;;;;;;;;;5087284;28;20422;-85
2022/06/07 10:04:48;;;;;;;7.65;3.72;;;;;;;;;;5097375;28;20583;-88
2022/06/07 10:07:39;;;;;;;5.22;3.65;;;;;;;;;;5113361;28;20031;-86
2022/06/07 10:10:23;;;;;;;3.92;2.95;;;;;;;;;;5091825;28;20031;-88
2022/06/07 10:12:55;;;;;;;5.10;3.55;;;;;;;;;;5095106;28;20027;-89
2022/06/07 10:15:37;;;;;;;4.00;3.45;;;;;;;;;;5093165;27;20027;-89
2022/06/07 10:18:22;;;;;;;3.55;3.13;;;;;;;;;;5112050;28;20051;-89
2022/06/07 10:21:12;;;;;;;3.25;2.95;;;;;;;;;;5113652;28;20103;-88
2022/06/07 10:24:00;;;;;;;3.88;3.17;;;;;;;;;;5092721;28;20023;-89
2022/06/07 10:27:02;;;;;;;6.18;3.20;;;;;;;;;;5113086;28;20023;-87
2022/06/07 10:29:51;;;;;;;3.65;3.20;;;;;;;;;;5112319;28;20484;-87
2022/06/07 10:32:33;;;;;;;5.05;3.33;;;;;;;;;;5112908;28;20011;-87
2022/06/07 10:35:11;;;;;;;3.53;2.80;;;;;;;;;;5093652;28;20047;-86
2022/06/07 10:38:06;;;;;;;4.37;2.70;;;;;;;;;;5094417;28;20540;-88
2022/06/07 10:40:45;;;;;;;9.43;3.25;;;;;;;;;;5094594;28;20264;-88
2022/06/07 10:43:44;;;;;;;3.92;2.83;;;;;;;;;;5095996;28;20082;-87
2022/06/07 10:46:13;;;;;;;3.38;2.80;;;;;;;;;;5095171;28;20380;-87
2022/06/07 10:49:12;;;;;;;3.17;2.80;;;;;;;;;;5115040;28;20027;-87
2022/06/07 10:54:47;;;;;;;4.75;3.20;;;;;;;;;;5113062;28;20038;-87
2022/06/07 10:57:27;;;;;;;3.75;2.63;;;;;;;;;;5095493;28;20034;-88
2022/06/07 10:59:52;;;;;;;;;;;;;;;;;;5114824;28;20035;-88
2022/06/07 11:02:43;;;;;;;3.83;2.40;;;;;;;;;;5115921;27;19920;-88
2022/06/07 11:11:10;;;;;;;5.53;2.97;;;;;;;;;;5112071;28;20069;-88
2022/06/07 11:14:01;;;;;;;3.42;2.22;;;;;;;;;;5110512;28;20027;-87
2022/06/07 11:17:19;;;;;;;4.45;2.67;;;;;;;;;;5113175;27;20098;-88
2022/06/07 11:19:44;;;;;;;2.50;2.17;;;;;;;;;;5114084;28;20391;-88
2022/06/07 11:22:17;;;;;;;3.63;2.75;;;;;;;;;;5113845;28;20027;-87
2022/06/07 11:24:59;;;;;;;3.40;2.28;;;;;;;;;;5108149;28;20031;-88
2022/06/07 11:27:27;;;;;;;2.50;2.30;;;;;;;;;;5111369;28;20027;-86
2022/06/07 11:30:21;;;;;;;3.85;2.80;;;;;;;;;;5092868;28;20023;-87
2022/06/07 11:32:59;;;;;;;2.80;2.42;;;;;;;;;;5109135;28;20070;-88
2022/06/07 11:36:03;;;;;;;3.78;2.60;;;;;;;;;;5096226;28;20063;-87
2022/06/07 11:38:32;;;;;;;3.97;2.60;;;;;;;;;;5087998;28;20384;-89
2022/06/07 11:41:37;;;;;;;3.75;2.28;;;;;;;;;;5092119;28;20028;-87
2022/06/07 11:44:10;;;;;;;4.70;2.17;;;;;;;;;;5089066;28;20463;-90
2022/06/07 11:46:35;;;;;;;4.85;2.35;;;;;;;;;;5094430;28;20023;-88
2022/06/07 11:49:22;;;;;;;3.55;2.50;;;;;;;;;;5104474;28;20102;-88
2022/06/07 11:52:04;;;;;;;3.53;2.60;;;;;;;;;;5102617;28;20023;-88
2022/06/07 11:54:35;;;;;;;2.97;2.22;;;;;;;;;;5101623;28;20024;-88
2022/06/07 11:57:17;;;;;;;2.47;2.22;;;;;;;;;;5105933;28;20077;-88
2022/06/07 11:59:50;;;;;;;2.97;2.40;;;;;;;;;;5112501;28;20031;-88
2022/06/07 12:02:15;;;;;;;3.70;2.33;;;;;;;;;;5113197;28;20024;-87
2022/06/07 12:04:40;;;;;;;3.13;2.60;;;;;;;;;;5112680;28;20145;-88
2022/06/07 12:07:21;;;;;;;4.05;2.65;;;;;;;;;;5084716;28;20055;-87
2022/06/07 12:09:59;;;;;;;3.58;2.42;;;;;;;;;;5098514;28;20028;-88
2022/06/07 12:12:35;;;;;;;4.77;2.53;;;;;;;;;;5112337;28;20030;-87
2022/06/07 12:15:17;;;;;;;5.22;4.72;;;;;;;;;;5111945;28;20034;-87
2022/06/07 12:17:55;;;;;;;3.33;2.35;;;;;;;;;;5113104;28;20069;-85
2022/06/07 12:20:33;;;;;;;2.60;2.10;;;;;;;;;;5104502;28;20019;-86
2022/06/07 12:23:21;;;;;;;2.67;2.10;;;;;;;;;;5112986;28;20515;-88
2022/06/07 12:25:56;;;;;;;2.40;2.20;;;;;;;;;;5110972;28;20432;-87
2022/06/07 12:28:25;;;;;;;2.55;2.35;;;;;;;;;;5111219;28;20022;-86
2022/06/07 12:30:51;;;;;;;4.93;2.10;;;;;;;;;;5094530;28;20027;-88
2022/06/07 12:33:29;;;;;;;4.80;2.10;;;;;;;;;;5112183;28;20027;-87
2022/06/07 12:36:14;;;;;;;2.93;2.03;;;;;;;;;;5112153;28;20036;-87
2022/06/07 12:38:44;;;;;;;4.60;2.30;;;;;;;;;;5094112;28;20055;-87
2022/06/07 12:41:15;;;;;;;2.65;2.13;;;;;;;;;;5110086;28;20038;-86
2022/06/07 12:43:46;;;;;;;2.70;2.33;;;;;;;;;;5105032;28;20019;-86
2022/06/07 12:46:24;;;;;;;3.47;2.15;;;;;;;;;;5109735;28;20026;-87
2022/06/07 12:48:51;;;;;;;2.75;2.08;;;;;;;;;;5109421;28;20103;-87
2022/06/07 12:51:37;;;;;;;4.70;2.25;;;;;;;;;;5093736;28;20072;-87
2022/06/07 12:54:14;;;;;;;2.83;1.95;;;;;;;;;;5093288;28;20019;-87
2022/06/07 12:56:42;;;;;;;3.20;2.30;;;;;;;;;;5110752;28;20039;-88
2022/06/07 12:59:17;;;;;;;4.88;3.92;;;;;;;;;;5095364;28;20110;-87
2022/06/07 13:01:46;;;;;;;5.45;3.80;;;;;;;;;;5092643;28;20099;-88
2022/06/07 13:04:20;;;;;;;4.13;2.90;;;;;;;;;;5112622;28;20023;-87
2022/06/07 13:07:14;;;;;;;4.85;3.10;;;;;;;;;;5093551;28;20031;-86
2022/06/07 13:09:40;;;;;;;9.27;6.10;;;;;;;;;;5110422;28;20019;-87
2022/06/07 13:12:07;;;;;;;4.28;2.30;;;;;;;;;;5111103;28;20161;-87
2022/06/07 13:14:32;;;;;;;6.03;2.50;;;;;;;;;;5112420;28;20035;-86
2022/06/07 13:17:16;;;;;;;3.85;2.47;;;;;;;;;;5093849;28;20028;-87
2022/06/07 13:19:45;;;;;;;3.53;1.80;;;;;;;;;;5111597;28;20019;-88
2022/06/07 13:22:17;;;;;;;;;;;;;;;;;;5112492;28;20391;-87
2022/06/07 13:24:51;;;;;;;2.70;2.00;;;;;;;;;;5093450;28;19918;-86
2022/06/07 13:27:41;;;;;;;7.25;2.70;;;;;;;;;;5092701;28;20123;-86
2022/06/07 13:30:15;;;;;;;3.75;2.17;;;;;;;;;;5092805;28;20446;-87
2022/06/07 13:32:41;;;;;;;4.70;2.78;;;;;;;;;;5111312;28;20030;-87
2022/06/07 13:35:26;;;;;;;4.38;2.22;;;;;;;;;;5106860;28;20067;-86
2022/06/07 13:38:04;;;;;;;2.85;2.00;;;;;;;;;;5093438;28;20031;-87
2022/06/07 13:40:33;;;;;;;3.97;1.98;;;;;;;;;;5111799;28;20059;-86
2022/06/07 13:43:19;;;;;;;2.13;1.92;;;;;;;;;;5110256;28;20032;-88
2022/06/07 13:45:49;;;;;;;2.17;1.83;;;;;;;;;;5109515;28;20438;-87
2022/06/07 13:48:22;;;;;;;3.40;1.80;;;;;;;;;;5111485;28;20115;-88
2022/06/07 13:53:55;;;;;;;2.95;1.95;;;;;;;;;;5109633;28;20148;-86
2022/06/07 13:56:22;;;;;;;2.97;2.05;;;;;;;;;;5111171;28;20023;-85
2022/06/07 13:58:56;;;;;;;4.22;1.70;;;;;;;;;;5109470;28;20032;-87
2022/06/07 14:01:29;;;;;;;2.90;2.10;;;;;;;;;;5089949;28;20168;-87
2022/06/07 14:03:59;;;;;;;4.57;2.33;;;;;;;;;;5107070;28;20475;-89
2022/06/07 14:06:32;;;;;;;3.53;1.90;;;;;;;;;;5108939;28;20130;-86
2022/06/07 14:09:00;;;;;;;3.88;2.25;;;;;;;;;;5104101;28;20027;-86
2022/06/07 14:11:26;;;;;;;4.65;2.60;;;;;;;;;;5110428;28;20024;-87
2022/06/07 14:13:52;;;;;;;3.20;2.20;;;;;;;;;;5108565;28;20034;-87
2022/06/07 14:16:32;;;;;;;1.95;1.75;;;;;;;;;;5109780;28;20378;-86
2022/06/07 14:19:01;;;;;;;3.05;1.90;;;;;;;;;;5109667;28;20027;-87
2022/06/07 14:21:27;;;;;;;;;;;;;;;;;;5111181;28;20045;-87
2022/06/07 14:23:52;;;;;;;2.17;1.95;;;;;;;;;;5111119;28;19920;-88
2022/06/07 14:26:18;;;;;;;3.80;1.80;;;;;;;;;;5113709;28;20398;-87
2022/06/07 14:28:45;;;;;;;3.20;1.67;;;;;;;;;;5112377;28;20032;-87
2022/06/07 14:31:18;;;;;;;2.03;1.80;;;;;;;;;;5091528;28;20085;-87
2022/06/07 14:33:43;;;;;;;3.92;2.28;;;;;;;;;;5110715;28;20031;-86
2022/06/07 14:36:10;;;;;;;3.70;2.40;;;;;;;;;;5108669;27;20042;-86
2022/06/07 14:38:36;;;;;;;3.63;2.30;;;;;;;;;;5094624;28;20439;-90
2022/06/07 14:41:01;;;;;;;8.23;2.15;;;;;;;;;;5113622;28;20043;-84
2022/06/07 14:43:27;;;;;;;3.67;2.00;;;;;;;;;;5112070;28;20110;-86
2022/06/07 14:46:01;;;;;;;3.83;1.85;;;;;;;;;;5114460;27;20016;-85
2022/06/07 14:48:33;;;;;;;5.32;2.42;;;;;;;;;;5111644;28;20027;-85
2022/06/07 14:51:00;;;;;;;2.88;2.00;;;;;;;;;;5112107;28;20494;-86
2022/06/07 14:53:26;;;;;;;3.47;2.03;;;;;;;;;;5113804;27;20026;-86
2022/06/07 14:55:51;;;;;;;4.75;2.35;;;;;;;;;;5113473;28;20019;-89
2022/06/07 14:58:17;;;;;;;3.13;2.22;;;;;;;;;;5110990;28;20356;-87
2022/06/07 15:00:46;;;;;;;3.40;2.10;;;;;;;;;;5113009;28;20076;-85
2022/06/07 15:03:14;;;;;;;3.90;1.92;;;;;;;;;;5093727;28;20051;-86
2022/06/07 15:05:42;;;;;;;3.05;2.10;;;;;;;;;;5093062;28;20031;-87
2022/06/07 15:08:15;;;;;;;7.80;2.88;;;;;;;;;;5113691;28;20030;-89
2022/06/07 15:10:42;;;;;;;2.00;1.70;;;;;;;;;;5107764;28;20039;-86
2022/06/07 15:13:19;;;;;;;2.30;2.00;;;;;;;;;;5111429;28;20415;-87
2022/06/07 15:15:45;;;;;;;1.95;1.67;;;;;;;;;;5107083;28;20471;-86
2022/06/07 15:18:13;;;;;;;2.30;1.75;;;;;;;;;;5107234;28;20028;-86
2022/06/07 15:20:39;;;;;;;2.20;1.80;;;;;;;;;;5105074;28;20024;-88
2022/06/07 15:23:21;;;;;;;4.15;1.83;;;;;;;;;;5095718;28;20404;-87
2022/06/07 15:25:49;;;;;;;3.03;2.15;;;;;;;;;;5092702;28;20024;-85
2022/06/07 15:28:15;;;;;;;2.20;1.70;;;;;;;;;;5081294;28;20023;-85
2022/06/07 15:30:41;;;;;;;2.55;1.60;;;;;;;;;;5104856;28;20031;-87
2022/06/07 15:33:08;;;;;;;2.05;1.70;;;;;;;;;;5109705;28;20068;-87
2022/06/07 15:35:38;;;;;;;3.72;2.00;;;;;;;;;;5115098;28;20042;-88